Time;durP1;ratioP1;P1;durP2;ratioP2;P2;SDS_P1;SDS_P2;PMS_P1;PMS_P2;Temp;Humidity;BMP_temperature;BMP_pressure;BME280_temperature;BME280_humidity;BME280_pressure;Samples;Min_cycle;Max_cycle;Signal;HPM_P1;HPM_P2
2022/04/03 00:00:34;;;;;;;5.63;2.33;;;;;;;;;;5065761;28;20563;-60
2022/04/03 00:03:02;;;;;;;5.38;2.17;;;;;;;;;;5060729;28;20056;-59
2022/04/03 00:05:28;;;;;;;;;;;;;;;;;;5061205;28;20049;-59
2022/04/03 00:08:01;;;;;;;6.55;2.03;;;;;;;;;;5063400;28;20007;-59
2022/04/03 00:10:27;;;;;;;4.67;1.57;;;;;;;;;;5060967;28;20052;-59
2022/04/03 00:12:54;;;;;;;4.30;2.10;;;;;;;;;;5061032;28;20378;-59
2022/04/03 00:15:27;;;;;;;6.50;2.30;;;;;;;;;;5064323;28;20091;-59
2022/04/03 00:17:53;;;;;;;7.07;2.65;;;;;;;;;;5064532;28;20103;-59
2022/04/03 00:20:20;;;;;;;4.35;2.40;;;;;;;;;;5060511;28;20780;-59
2022/04/03 00:22:49;;;;;;;8.13;2.42;;;;;;;;;;5059361;28;20072;-59
2022/04/03 00:25:17;;;;;;;5.22;2.42;;;;;;;;;;5063352;28;20044;-60
2022/04/03 00:27:44;;;;;;;6.35;2.45;;;;;;;;;;5062989;28;20091;-59
2022/04/03 00:30:11;;;;;;;4.50;2.35;;;;;;;;;;5062989;28;20136;-59
2022/04/03 00:32:38;;;;;;;6.75;2.50;;;;;;;;;;5065421;28;20173;-59
2022/04/03 00:35:05;;;;;;;4.68;1.83;;;;;;;;;;5061140;28;20137;-59
2022/04/03 00:37:32;;;;;;;9.85;2.50;;;;;;;;;;5060676;28;20139;-59
2022/04/03 00:39:59;;;;;;;7.28;1.95;;;;;;;;;;5060739;28;20076;-59
2022/04/03 00:42:26;;;;;;;6.53;2.60;;;;;;;;;;5061347;28;20122;-59
2022/04/03 00:45:02;;;;;;;5.13;2.10;;;;;;;;;;5039618;28;20084;-59
2022/04/03 00:47:28;;;;;;;8.90;2.72;;;;;;;;;;5040572;28;20132;-59
2022/04/03 00:49:55;;;;;;;6.77;2.63;;;;;;;;;;5041891;28;20148;-59
2022/04/03 00:52:22;;;;;;;;;;;;;;;;;;5020518;28;20081;-59
2022/04/03 00:54:49;;;;;;;3.03;2.22;;;;;;;;;;5043168;28;20015;-59
2022/04/03 00:57:15;;;;;;;7.07;2.50;;;;;;;;;;5042077;28;20089;-59
2022/04/03 00:59:46;;;;;;;9.35;2.40;;;;;;;;;;5040570;28;20128;-59
2022/04/03 01:02:13;;;;;;;5.55;2.40;;;;;;;;;;5039582;28;20136;-59
2022/04/03 01:04:39;;;;;;;6.90;2.50;;;;;;;;;;5041288;28;20067;-59
2022/04/03 01:07:16;;;;;;;6.22;2.45;;;;;;;;;;5041509;28;20553;-59
2022/04/03 01:09:44;;;;;;;15.20;3.15;;;;;;;;;;5043137;28;20494;-59
2022/04/03 01:12:11;;;;;;;8.57;2.78;;;;;;;;;;5040594;28;20083;-59
2022/04/03 01:14:38;;;;;;;7.35;2.38;;;;;;;;;;5041093;28;20475;-59
2022/04/03 01:17:06;;;;;;;4.82;2.05;;;;;;;;;;5039983;28;20081;-59
2022/04/03 01:19:32;;;;;;;4.90;2.97;;;;;;;;;;5037251;28;20044;-60
2022/04/03 01:21:59;;;;;;;6.40;2.42;;;;;;;;;;5046921;28;20136;-59
2022/04/03 01:24:26;;;;;;;10.47;2.50;;;;;;;;;;5040551;28;20128;-60
2022/04/03 01:26:52;;;;;;;6.47;2.20;;;;;;;;;;5041657;28;20587;-59
2022/04/03 01:29:26;;;;;;;7.97;2.50;;;;;;;;;;5038112;28;20465;-59
2022/04/03 01:31:53;;;;;;;10.90;2.88;;;;;;;;;;5042028;28;20135;-59
2022/04/03 01:34:20;;;;;;;4.65;1.83;;;;;;;;;;5039467;28;20041;-59
2022/04/03 01:36:48;;;;;;;8.10;2.40;;;;;;;;;;5039248;28;20073;-59
2022/04/03 01:39:15;;;;;;;7.10;2.28;;;;;;;;;;5041044;28;20083;-59
2022/04/03 01:41:42;;;;;;;7.85;2.40;;;;;;;;;;5041294;28;20043;-59
2022/04/03 01:44:16;;;;;;;6.75;2.40;;;;;;;;;;5051306;28;20056;-59
2022/04/03 01:46:43;;;;;;;6.50;2.70;;;;;;;;;;5061395;28;20136;-59
2022/04/03 01:49:11;;;;;;;6.90;2.63;;;;;;;;;;5061982;28;20151;-59
2022/04/03 01:51:37;;;;;;;5.35;2.70;;;;;;;;;;5062131;28;20127;-59
2022/04/03 01:54:04;;;;;;;7.20;2.57;;;;;;;;;;5057632;28;20077;-60
2022/04/03 01:56:34;;;;;;;4.10;1.95;;;;;;;;;;5057693;28;20470;-59
2022/04/03 01:59:07;;;;;;;8.27;2.30;;;;;;;;;;5058148;28;20135;-59
2022/04/03 02:01:34;;;;;;;13.67;2.10;;;;;;;;;;5059335;28;20515;-59
2022/04/03 02:04:03;;;;;;;7.28;2.40;;;;;;;;;;5055007;28;20299;-59
2022/04/03 02:06:32;;;;;;;8.73;3.00;;;;;;;;;;5060875;28;20131;-59
2022/04/03 02:09:01;;;;;;;5.40;2.50;;;;;;;;;;5056919;28;20098;-59
2022/04/03 02:11:28;;;;;;;6.78;2.53;;;;;;;;;;5060779;28;20103;-60
2022/04/03 02:14:01;;;;;;;6.75;2.38;;;;;;;;;;5059793;28;20131;-59
2022/04/03 02:16:28;;;;;;;8.13;2.53;;;;;;;;;;5058926;28;20059;-59
2022/04/03 02:18:54;;;;;;;12.70;2.75;;;;;;;;;;5060727;28;20302;-60
2022/04/03 02:21:27;;;;;;;10.43;2.50;;;;;;;;;;5057672;28;20048;-60
2022/04/03 02:23:53;;;;;;;7.80;2.50;;;;;;;;;;5059349;28;20148;-60
2022/04/03 02:26:20;;;;;;;7.55;2.78;;;;;;;;;;5059494;28;20053;-59
2022/04/03 02:28:53;;;;;;;7.13;2.97;;;;;;;;;;5061378;28;20072;-59
2022/04/03 02:31:19;;;;;;;6.78;2.45;;;;;;;;;;5059648;28;20107;-59
2022/04/03 02:33:46;;;;;;;13.05;2.90;;;;;;;;;;5062800;28;20072;-60
2022/04/03 02:36:19;;;;;;;6.95;2.28;;;;;;;;;;5059165;28;20530;-59
2022/04/03 02:38:46;;;;;;;6.68;2.50;;;;;;;;;;5057429;28;20132;-60
2022/04/03 02:41:12;;;;;;;2.67;1.77;;;;;;;;;;5058839;28;20127;-59
2022/04/03 02:43:52;;;;;;;3.70;2.00;;;;;;;;;;5048233;28;20099;-59
2022/04/03 02:46:19;;;;;;;9.20;2.63;;;;;;;;;;5036851;28;20147;-59
2022/04/03 02:48:46;;;;;;;9.18;2.03;;;;;;;;;;5038207;28;20049;-60
2022/04/03 02:51:12;;;;;;;7.75;2.60;;;;;;;;;;5038747;28;20104;-59
2022/04/03 02:53:39;;;;;;;12.95;3.30;;;;;;;;;;5033447;28;20140;-59
2022/04/03 02:56:06;;;;;;;8.95;2.30;;;;;;;;;;5038248;28;20131;-59
2022/04/03 02:58:32;;;;;;;5.60;2.60;;;;;;;;;;5041776;28;20123;-60
2022/04/03 03:00:59;;;;;;;11.43;2.70;;;;;;;;;;5039912;28;20153;-59
2022/04/03 03:03:28;;;;;;;4.93;2.35;;;;;;;;;;5039683;28;20053;-59
2022/04/03 03:05:55;;;;;;;5.60;2.35;;;;;;;;;;5034386;28;20056;-59
2022/04/03 03:08:21;;;;;;;5.40;2.88;;;;;;;;;;5037382;28;20076;-59
2022/04/03 03:10:48;;;;;;;2.42;1.80;;;;;;;;;;5034688;28;20128;-59
2022/04/03 03:13:14;;;;;;;8.75;2.58;;;;;;;;;;5037436;28;20087;-60
2022/04/03 03:15:41;;;;;;;5.40;2.10;;;;;;;;;;5042440;28;20132;-60
2022/04/03 03:18:14;;;;;;;8.93;2.58;;;;;;;;;;5036878;28;20083;-60
2022/04/03 03:20:41;;;;;;;12.30;2.88;;;;;;;;;;5038462;28;20053;-59
2022/04/03 03:23:08;;;;;;;10.20;2.67;;;;;;;;;;5038886;28;20136;-59
2022/04/03 03:25:34;;;;;;;15.30;3.47;;;;;;;;;;5045504;28;20128;-59
2022/04/03 03:28:01;;;;;;;7.15;2.75;;;;;;;;;;5045663;28;20346;-59
2022/04/03 03:30:28;;;;;;;13.40;3.28;;;;;;;;;;5040142;28;20073;-59
2022/04/03 03:33:01;;;;;;;5.97;3.45;;;;;;;;;;5044082;28;20443;-59
2022/04/03 03:35:27;;;;;;;13.75;3.15;;;;;;;;;;5042132;28;20125;-59
2022/04/03 03:37:54;;;;;;;6.95;3.13;;;;;;;;;;5044212;28;20468;-60
2022/04/03 03:40:23;;;;;;;8.30;3.03;;;;;;;;;;5043636;28;20057;-60
2022/04/03 03:42:54;;;;;;;6.93;3.20;;;;;;;;;;5041619;28;20049;-60
2022/04/03 03:45:20;;;;;;;7.23;2.50;;;;;;;;;;5047116;28;20131;-60
2022/04/03 03:47:48;;;;;;;9.40;3.13;;;;;;;;;;5041805;28;20891;-59
2022/04/03 03:50:14;;;;;;;13.98;3.40;;;;;;;;;;5045414;28;20520;-60
2022/04/03 03:52:42;;;;;;;6.85;3.25;;;;;;;;;;5042327;28;20135;-59
2022/04/03 03:55:08;;;;;;;;;;;;;;;;;;5043224;28;20500;-60
2022/04/03 03:57:35;;;;;;;8.30;3.30;;;;;;;;;;5042925;28;20144;-60
2022/04/03 04:00:02;;;;;;;9.20;3.07;;;;;;;;;;5045970;28;20084;-60
2022/04/03 04:02:28;;;;;;;15.23;3.58;;;;;;;;;;5044558;28;20053;-59
2022/04/03 04:04:55;;;;;;;9.15;3.25;;;;;;;;;;5039680;28;20057;-59
2022/04/03 04:07:22;;;;;;;12.13;2.95;;;;;;;;;;5040895;28;20135;-60
2022/04/03 04:09:49;;;;;;;5.25;2.38;;;;;;;;;;5043811;28;20123;-60
2022/04/03 04:12:15;;;;;;;10.75;3.60;;;;;;;;;;5041820;28;20492;-59
2022/04/03 04:14:42;;;;;;;12.40;3.88;;;;;;;;;;5040968;28;20204;-60
2022/04/03 04:17:16;;;;;;;9.32;3.58;;;;;;;;;;5043704;28;20167;-59
2022/04/03 04:19:44;;;;;;;11.10;3.20;;;;;;;;;;5043564;28;20148;-60
2022/04/03 04:22:10;;;;;;;8.30;3.50;;;;;;;;;;5042336;28;20152;-59
2022/04/03 04:24:43;;;;;;;7.93;3.22;;;;;;;;;;5042214;28;20136;-59
2022/04/03 04:27:10;;;;;;;12.27;3.70;;;;;;;;;;5041527;28;20160;-60
2022/04/03 04:29:37;;;;;;;14.13;5.10;;;;;;;;;;5042705;28;20128;-59
2022/04/03 04:32:10;;;;;;;13.77;4.80;;;;;;;;;;5040755;28;20135;-59
2022/04/03 04:34:36;;;;;;;7.07;3.00;;;;;;;;;;5039949;28;20053;-59
2022/04/03 04:37:03;;;;;;;8.45;3.75;;;;;;;;;;5042915;28;20296;-60
2022/04/03 04:39:31;;;;;;;35.03;3.45;;;;;;;;;;5042293;28;20140;-59
2022/04/03 04:41:57;;;;;;;8.45;3.38;;;;;;;;;;5039963;28;20128;-60
2022/04/03 04:44:24;;;;;;;11.83;4.57;;;;;;;;;;5042651;28;20111;-59
2022/04/03 04:46:51;;;;;;;11.35;4.97;;;;;;;;;;5041481;28;20084;-59
2022/04/03 04:49:18;;;;;;;7.75;3.75;;;;;;;;;;5039274;28;20055;-59
2022/04/03 04:51:44;;;;;;;7.73;3.57;;;;;;;;;;5040433;28;20120;-59
2022/04/03 04:54:17;;;;;;;12.73;5.13;;;;;;;;;;5036169;28;20081;-60
2022/04/03 04:56:43;;;;;;;14.90;4.75;;;;;;;;;;5039725;28;20073;-59
2022/04/03 04:59:10;;;;;;;14.50;4.68;;;;;;;;;;5039806;28;20144;-60
2022/04/03 05:01:40;;;;;;;13.10;4.95;;;;;;;;;;5042580;28;20056;-59
2022/04/03 05:04:07;;;;;;;17.00;3.92;;;;;;;;;;5042555;28;20076;-60
2022/04/03 05:06:34;;;;;;;16.92;4.65;;;;;;;;;;5041824;28;20103;-59
2022/04/03 05:09:07;;;;;;;15.43;4.82;;;;;;;;;;5042072;28;20127;-60
2022/04/03 05:11:34;;;;;;;15.80;5.72;;;;;;;;;;5025736;28;20092;-60
2022/04/03 05:14:00;;;;;;;15.60;5.53;;;;;;;;;;5042178;28;20100;-60
2022/04/03 05:16:27;;;;;;;13.77;4.18;;;;;;;;;;5039295;28;20080;-60
2022/04/03 05:18:53;;;;;;;11.23;4.50;;;;;;;;;;5041427;28;20689;-60
2022/04/03 05:21:21;;;;;;;15.93;6.05;;;;;;;;;;5037768;28;20551;-60
2022/04/03 05:23:54;;;;;;;15.48;4.95;;;;;;;;;;5041906;28;20148;-60
2022/04/03 05:26:20;;;;;;;10.80;4.77;;;;;;;;;;5040322;28;20683;-60
2022/04/03 05:28:47;;;;;;;19.63;5.68;;;;;;;;;;5040914;28;20167;-60
2022/04/03 05:31:14;;;;;;;14.85;5.03;;;;;;;;;;5041646;28;20137;-60
2022/04/03 05:33:41;;;;;;;12.95;4.88;;;;;;;;;;5039881;28;20048;-60
2022/04/03 05:36:07;;;;;;;12.40;5.27;;;;;;;;;;5041836;28;20131;-60
2022/04/03 05:38:34;;;;;;;11.30;4.80;;;;;;;;;;5040093;28;20050;-60
2022/04/03 05:41:00;;;;;;;16.90;5.53;;;;;;;;;;5039921;28;20491;-60
2022/04/03 05:43:27;;;;;;;16.67;5.80;;;;;;;;;;5043252;28;20113;-60
2022/04/03 05:45:54;;;;;;;18.27;5.72;;;;;;;;;;5043420;28;20568;-60
2022/04/03 05:48:21;;;;;;;21.13;6.93;;;;;;;;;;5043585;28;20584;-59
2022/04/03 05:50:47;;;;;;;18.27;6.63;;;;;;;;;;5044198;28;20061;-60
2022/04/03 05:53:14;;;;;;;20.80;6.68;;;;;;;;;;5041492;28;20155;-60
2022/04/03 05:55:40;;;;;;;21.77;6.57;;;;;;;;;;5044605;28;20128;-60
2022/04/03 05:58:07;;;;;;;20.80;7.68;;;;;;;;;;5034834;28;20136;-60
2022/04/03 06:00:34;;;;;;;20.17;5.50;;;;;;;;;;5040552;28;20153;-60
2022/04/03 06:03:01;;;;;;;24.00;7.22;;;;;;;;;;5039327;28;20049;-60
2022/04/03 06:05:32;;;;;;;21.75;7.00;;;;;;;;;;5042216;28;20076;-60
2022/04/03 06:08:00;;;;;;;15.80;6.13;;;;;;;;;;5037639;28;20119;-61
2022/04/03 06:10:27;;;;;;;19.15;6.13;;;;;;;;;;5041125;28;20508;-61
2022/04/03 06:12:55;;;;;;;17.30;6.00;;;;;;;;;;5045729;28;20126;-61
2022/04/03 06:15:33;;;;;;;21.17;6.70;;;;;;;;;;5039271;28;20076;-61
2022/04/03 06:18:00;;;;;;;18.42;6.57;;;;;;;;;;5038233;28;20057;-61
2022/04/03 06:20:26;;;;;;;15.20;6.30;;;;;;;;;;5036728;28;20128;-61
2022/04/03 06:22:53;;;;;;;17.70;6.05;;;;;;;;;;5036314;28;20108;-61
2022/04/03 06:25:20;;;;;;;23.77;7.87;;;;;;;;;;5035042;28;20532;-61
2022/04/03 06:27:46;;;;;;;24.30;8.18;;;;;;;;;;5040247;28;20081;-61
2022/04/03 06:30:21;;;;;;;22.40;8.30;;;;;;;;;;5044765;28;20160;-61
2022/04/03 06:32:47;;;;;;;;;;;;;;;;;;5043242;28;20048;-61
2022/04/03 06:35:14;;;;;;;24.70;8.48;;;;;;;;;;5037997;28;20012;-61
2022/04/03 06:37:42;;;;;;;24.33;9.65;;;;;;;;;;5035939;28;20045;-61
2022/04/03 06:40:09;;;;;;;25.95;9.98;;;;;;;;;;5036422;28;20057;-62
2022/04/03 06:42:36;;;;;;;21.60;9.30;;;;;;;;;;5036322;28;20123;-63
2022/04/03 06:45:04;;;;;;;22.27;9.40;;;;;;;;;;5053467;28;20107;-61
2022/04/03 06:47:31;;;;;;;21.70;10.32;;;;;;;;;;5059937;28;20127;-62
2022/04/03 06:49:58;;;;;;;20.63;9.93;;;;;;;;;;5055631;28;20105;-62
2022/04/03 06:52:25;;;;;;;17.92;7.53;;;;;;;;;;5055886;28;20048;-62
2022/04/03 06:54:52;;;;;;;24.25;10.23;;;;;;;;;;5053279;28;20048;-62
2022/04/03 06:57:19;;;;;;;23.45;9.77;;;;;;;;;;5052808;28;20048;-62
2022/04/03 06:59:46;;;;;;;24.05;10.35;;;;;;;;;;5055477;28;20163;-61
2022/04/03 07:02:12;;;;;;;25.95;9.90;;;;;;;;;;5055627;28;20048;-62
2022/04/03 07:04:39;;;;;;;25.23;9.45;;;;;;;;;;5056731;28;20094;-62
2022/04/03 07:07:22;;;;;;;21.90;10.23;;;;;;;;;;5057402;28;20136;-62
2022/04/03 07:09:49;;;;;;;24.75;10.27;;;;;;;;;;5060901;28;20091;-62
2022/04/03 07:12:16;;;;;;;20.08;9.70;;;;;;;;;;5056171;28;20136;-63
2022/04/03 07:14:43;;;;;;;23.48;10.05;;;;;;;;;;5054282;28;20095;-63
2022/04/03 07:17:09;;;;;;;24.83;9.65;;;;;;;;;;5056932;28;20076;-63
2022/04/03 07:19:43;;;;;;;27.35;10.07;;;;;;;;;;5056016;28;20179;-63
2022/04/03 07:22:10;;;;;;;20.83;9.98;;;;;;;;;;5054476;28;20496;-63
2022/04/03 07:24:36;;;;;;;23.48;8.85;;;;;;;;;;5036201;28;20139;-64
2022/04/03 07:27:03;;;;;;;18.42;8.90;;;;;;;;;;5054308;28;20127;-63
2022/04/03 07:29:30;;;;;;;23.20;9.10;;;;;;;;;;5055508;28;20179;-64
2022/04/03 07:31:57;;;;;;;15.82;8.95;;;;;;;;;;5056725;28;20140;-64
2022/04/03 07:34:27;;;;;;;18.33;8.50;;;;;;;;;;5055230;28;20055;-64
2022/04/03 07:36:54;;;;;;;17.85;8.63;;;;;;;;;;5054897;28;20123;-64
2022/04/03 07:39:21;;;;;;;18.10;9.00;;;;;;;;;;5055331;28;20048;-64
2022/04/03 07:41:47;;;;;;;15.82;8.70;;;;;;;;;;5054260;28;20047;-65
2022/04/03 07:44:15;;;;;;;15.32;7.80;;;;;;;;;;5052589;28;20156;-66
2022/04/03 07:46:41;;;;;;;23.55;7.40;;;;;;;;;;5057392;28;20559;-65
2022/04/03 07:49:08;;;;;;;12.32;6.15;;;;;;;;;;5060149;28;20060;-65
2022/04/03 07:51:34;;;;;;;15.43;6.32;;;;;;;;;;5057813;28;20036;-65
2022/04/03 07:54:01;;;;;;;11.88;6.30;;;;;;;;;;5060832;28;20088;-65
2022/04/03 07:56:27;;;;;;;16.38;5.93;;;;;;;;;;5058791;28;20091;-65
2022/04/03 07:58:54;;;;;;;12.77;5.80;;;;;;;;;;5055275;28;20129;-66
2022/04/03 08:01:20;;;;;;;12.23;5.72;;;;;;;;;;5052425;28;20125;-66
2022/04/03 08:03:51;;;;;;;14.13;5.55;;;;;;;;;;5053467;28;20060;-66
2022/04/03 08:06:17;;;;;;;16.73;6.20;;;;;;;;;;5054855;28;20144;-66
2022/04/03 08:08:44;;;;;;;11.07;5.10;;;;;;;;;;5055920;28;20079;-66
2022/04/03 08:11:11;;;;;;;10.50;4.75;;;;;;;;;;5056293;28;20053;-66
2022/04/03 08:13:37;;;;;;;14.23;5.33;;;;;;;;;;5058084;28;20099;-67
2022/04/03 08:16:04;;;;;;;11.20;4.28;;;;;;;;;;5057304;28;20403;-66
2022/04/03 08:18:30;;;;;;;15.55;4.82;;;;;;;;;;5057565;28;20071;-67
2022/04/03 08:21:01;;;;;;;14.15;4.50;;;;;;;;;;5059010;28;20148;-66
2022/04/03 08:23:27;;;;;;;12.98;4.43;;;;;;;;;;5056951;28;20044;-67
2022/04/03 08:25:55;;;;;;;8.95;4.65;;;;;;;;;;5056653;28;20550;-67
2022/04/03 08:28:22;;;;;;;11.40;4.47;;;;;;;;;;5059228;28;20079;-67
2022/04/03 08:30:49;;;;;;;10.40;4.50;;;;;;;;;;5057153;28;20045;-67
2022/04/03 08:33:15;;;;;;;12.82;4.45;;;;;;;;;;5058257;28;22015;-67
2022/04/03 08:35:42;;;;;;;14.25;5.10;;;;;;;;;;5058324;28;20577;-67
2022/04/03 08:38:08;;;;;;;12.65;3.42;;;;;;;;;;5055331;28;20051;-67
2022/04/03 08:40:36;;;;;;;8.40;3.95;;;;;;;;;;5062434;28;20098;-67
2022/04/03 08:43:03;;;;;;;8.20;3.22;;;;;;;;;;5061176;28;20136;-67
2022/04/03 08:45:30;;;;;;;6.60;3.22;;;;;;;;;;5057842;28;20788;-67
2022/04/03 08:47:58;;;;;;;6.47;3.10;;;;;;;;;;5057883;28;20045;-68
2022/04/03 08:50:29;;;;;;;8.20;2.50;;;;;;;;;;5062315;28;20079;-67
2022/04/03 08:53:00;;;;;;;13.85;2.92;;;;;;;;;;5056593;28;20053;-68
2022/04/03 08:55:26;;;;;;;11.35;3.10;;;;;;;;;;5062424;28;20131;-67
2022/04/03 08:57:53;;;;;;;10.88;3.22;;;;;;;;;;5048640;28;20135;-67
2022/04/03 09:00:20;;;;;;;6.93;2.75;;;;;;;;;;5057585;28;20397;-68
2022/04/03 09:02:47;;;;;;;6.63;2.60;;;;;;;;;;5063018;28;20140;-68
2022/04/03 09:05:14;;;;;;;7.07;2.67;;;;;;;;;;5059246;28;20084;-68
2022/04/03 09:07:41;;;;;;;12.40;2.90;;;;;;;;;;5060894;28;20942;-68
2022/04/03 09:10:15;;;;;;;5.15;2.50;;;;;;;;;;5061172;28;20775;-68
2022/04/03 09:12:42;;;;;;;5.57;2.30;;;;;;;;;;5059276;28;20219;-68
2022/04/03 09:15:18;;;;;;;10.30;2.47;;;;;;;;;;5059128;28;20132;-68
2022/04/03 09:17:49;;;;;;;10.10;2.72;;;;;;;;;;5061207;28;20128;-68
2022/04/03 09:20:23;;;;;;;10.10;2.58;;;;;;;;;;5058332;28;20095;-68
2022/04/03 09:22:53;;;;;;;6.75;2.33;;;;;;;;;;5062260;28;20527;-68
2022/04/03 09:25:27;;;;;;;8.45;2.38;;;;;;;;;;5058716;28;20140;-68
2022/04/03 09:27:55;;;;;;;8.05;2.10;;;;;;;;;;5059173;28;20119;-68
2022/04/03 09:30:35;;;;;;;6.75;2.47;;;;;;;;;;5061656;28;20132;-68
2022/04/03 09:33:04;;;;;;;5.18;2.15;;;;;;;;;;5061795;28;20127;-68
2022/04/03 09:35:31;;;;;;;7.68;1.70;;;;;;;;;;5060153;28;20080;-69
2022/04/03 09:38:14;;;;;;;4.05;1.80;;;;;;;;;;5059948;28;20132;-68
2022/04/03 09:40:43;;;;;;;3.20;1.27;;;;;;;;;;5056036;28;20049;-69
2022/04/03 09:43:14;;;;;;;5.20;1.60;;;;;;;;;;5053799;28;20056;-68
2022/04/03 09:45:45;;;;;;;4.55;1.55;;;;;;;;;;5058338;28;20080;-68
2022/04/03 09:48:28;;;;;;;1.75;1.15;;;;;;;;;;5060305;28;20749;-69
2022/04/03 09:50:54;;;;;;;2.42;1.15;;;;;;;;;;5064761;28;20565;-69
2022/04/03 09:53:28;;;;;;;2.85;1.45;;;;;;;;;;5062995;28;20123;-69
2022/04/03 09:55:55;;;;;;;2.78;1.42;;;;;;;;;;5059073;28;20127;-69
2022/04/03 09:58:22;;;;;;;2.70;1.20;;;;;;;;;;5056944;28;20595;-69
2022/04/03 10:00:49;;;;;;;;;;;;;;;;;;5058342;28;20076;-69
2022/04/03 10:03:15;;;;;;;3.35;1.63;;;;;;;;;;5060696;28;19920;-69
2022/04/03 10:05:43;;;;;;;3.38;1.15;;;;;;;;;;5058312;28;20127;-69
2022/04/03 10:08:17;;;;;;;2.05;1.13;;;;;;;;;;5060233;28;20064;-70
2022/04/03 10:10:45;;;;;;;6.90;1.10;;;;;;;;;;5058454;28;20427;-69
2022/04/03 10:13:12;;;;;;;1.77;1.13;;;;;;;;;;5058385;28;20256;-69
2022/04/03 10:15:42;;;;;;;2.15;1.10;;;;;;;;;;5062647;28;20057;-69
2022/04/03 10:18:08;;;;;;;4.75;1.20;;;;;;;;;;5050606;28;20090;-69
2022/04/03 10:20:36;;;;;;;2.88;1.10;;;;;;;;;;5060033;28;20128;-69
2022/04/03 10:23:10;;;;;;;4.32;1.55;;;;;;;;;;5058189;28;20164;-69
2022/04/03 10:25:38;;;;;;;4.53;1.83;;;;;;;;;;5058378;28;20135;-70
2022/04/03 10:28:06;;;;;;;3.88;1.23;;;;;;;;;;5060122;28;20484;-70
2022/04/03 10:30:42;;;;;;;6.15;1.25;;;;;;;;;;5064649;28;20055;-69
2022/04/03 10:33:23;;;;;;;1.70;0.90;;;;;;;;;;5059208;28;20095;-70
2022/04/03 10:36:02;;;;;;;3.50;1.40;;;;;;;;;;5058478;28;20504;-69
2022/04/03 10:38:45;;;;;;;1.88;1.17;;;;;;;;;;5062562;28;20076;-69
2022/04/03 10:41:25;;;;;;;1.63;0.85;;;;;;;;;;5059309;28;20461;-69
2022/04/03 10:44:18;;;;;;;5.50;1.40;;;;;;;;;;5052176;28;20115;-69
2022/04/03 10:47:04;;;;;;;1.98;1.00;;;;;;;;;;5039941;28;20049;-69
2022/04/03 10:49:31;;;;;;;2.80;1.23;;;;;;;;;;5040579;28;20428;-69
2022/04/03 10:52:06;;;;;;;3.13;1.30;;;;;;;;;;5038679;28;20084;-70
2022/04/03 10:54:40;;;;;;;2.35;1.05;;;;;;;;;;5043603;28;20218;-70
2022/04/03 10:57:33;;;;;;;4.53;1.17;;;;;;;;;;5037233;28;20041;-70
2022/04/03 11:00:12;;;;;;;1.75;0.95;;;;;;;;;;5039001;28;20073;-70
2022/04/03 11:02:39;;;;;;;2.50;0.90;;;;;;;;;;5037461;28;20053;-70
2022/04/03 11:05:21;;;;;;;2.50;0.98;;;;;;;;;;5039013;28;20046;-69
2022/04/03 11:08:14;;;;;;;3.58;0.80;;;;;;;;;;5038031;28;20520;-69
2022/04/03 11:10:57;;;;;;;1.38;0.80;;;;;;;;;;5036777;28;20086;-69
2022/04/03 11:13:37;;;;;;;2.80;0.75;;;;;;;;;;5036111;28;20547;-70
2022/04/03 11:16:06;;;;;;;0.80;0.63;;;;;;;;;;5037308;28;20473;-69
2022/04/03 11:18:33;;;;;;;3.22;1.00;;;;;;;;;;5036481;28;20116;-70
2022/04/03 11:21:08;;;;;;;1.60;0.80;;;;;;;;;;5035958;28;20563;-69
2022/04/03 11:23:35;;;;;;;3.13;1.00;;;;;;;;;;5034933;28;20175;-69
2022/04/03 11:26:05;;;;;;;0.65;0.60;;;;;;;;;;5034607;28;20059;-69
2022/04/03 11:28:34;;;;;;;1.77;0.75;;;;;;;;;;5034849;28;20048;-70
2022/04/03 11:31:04;;;;;;;2.92;0.73;;;;;;;;;;5035036;28;20164;-70
2022/04/03 11:33:31;;;;;;;4.25;0.95;;;;;;;;;;5037615;28;20102;-70
2022/04/03 11:36:07;;;;;;;1.15;0.80;;;;;;;;;;5034332;28;20091;-69
2022/04/03 11:38:37;;;;;;;0.90;0.70;;;;;;;;;;5035844;28;20052;-70
2022/04/03 11:41:05;;;;;;;3.45;0.80;;;;;;;;;;5034293;28;20132;-70
2022/04/03 11:43:33;;;;;;;1.85;0.77;;;;;;;;;;5041052;28;20140;-69
2022/04/03 11:46:01;;;;;;;1.95;0.77;;;;;;;;;;5058451;28;20095;-69
2022/04/03 11:48:29;;;;;;;3.10;0.68;;;;;;;;;;5056858;28;20055;-69
2022/04/03 11:51:07;;;;;;;1.85;0.43;;;;;;;;;;5061154;28;20044;-70
2022/04/03 11:53:34;;;;;;;0.57;0.57;;;;;;;;;;5058042;28;20048;-70
2022/04/03 11:56:19;;;;;;;2.58;0.80;;;;;;;;;;5059468;28;20045;-69
2022/04/03 11:58:49;;;;;;;1.38;0.43;;;;;;;;;;5059114;28;20603;-70
2022/04/03 12:01:25;;;;;;;1.83;0.70;;;;;;;;;;5058985;28;20503;-70
2022/04/03 12:04:08;;;;;;;2.88;0.70;;;;;;;;;;5057576;28;20143;-70
2022/04/03 12:06:35;;;;;;;0.82;0.50;;;;;;;;;;5037338;28;20059;-70
2022/04/03 12:09:19;;;;;;;1.92;0.68;;;;;;;;;;5058420;28;20473;-70
2022/04/03 12:11:48;;;;;;;2.05;0.80;;;;;;;;;;5060171;28;20178;-69
2022/04/03 12:14:26;;;;;;;1.52;0.52;;;;;;;;;;5039663;28;20480;-70
2022/04/03 12:17:00;;;;;;;1.98;0.70;;;;;;;;;;5058195;28;20236;-70
2022/04/03 12:19:30;;;;;;;0.93;0.75;;;;;;;;;;5057666;28;20144;-70
2022/04/03 12:21:57;;;;;;;1.10;0.60;;;;;;;;;;5061671;28;20143;-70
2022/04/03 12:24:27;;;;;;;3.63;1.10;;;;;;;;;;5055053;28;20159;-70
2022/04/03 12:27:18;;;;;;;4.25;1.00;;;;;;;;;;5058796;28;20135;-70
2022/04/03 12:29:45;;;;;;;0.98;0.77;;;;;;;;;;5048153;28;20071;-70
2022/04/03 12:32:17;;;;;;;0.77;0.63;;;;;;;;;;5058524;28;20076;-70
2022/04/03 12:34:48;;;;;;;2.10;0.57;;;;;;;;;;5060154;28;20044;-70
2022/04/03 12:37:15;;;;;;;1.92;0.55;;;;;;;;;;5063891;28;20076;-69
2022/04/03 12:39:41;;;;;;;2.47;0.70;;;;;;;;;;5059506;28;20596;-69
2022/04/03 12:42:11;;;;;;;1.85;0.55;;;;;;;;;;5058672;28;20076;-70
2022/04/03 12:44:44;;;;;;;0.43;0.40;;;;;;;;;;5068474;28;20080;-70
2022/04/03 12:47:14;;;;;;;0.45;0.45;;;;;;;;;;5058495;28;20137;-70
2022/04/03 12:49:41;;;;;;;0.70;0.52;;;;;;;;;;5064768;28;20123;-69
2022/04/03 12:52:08;;;;;;;2.67;0.50;;;;;;;;;;5059316;28;20128;-69
2022/04/03 12:54:43;;;;;;;1.55;0.75;;;;;;;;;;5057065;28;20131;-70
2022/04/03 13:00:15;;;;;;;2.10;0.40;;;;;;;;;;5066413;28;20068;-69
2022/04/03 13:02:43;;;;;;;0.60;0.40;;;;;;;;;;5060402;28;20079;-69
2022/04/03 13:05:13;;;;;;;1.15;0.43;;;;;;;;;;5065846;28;20053;-68
2022/04/03 13:07:39;;;;;;;1.65;0.55;;;;;;;;;;5061796;28;20132;-69
2022/04/03 13:10:14;;;;;;;1.05;0.50;;;;;;;;;;5064391;28;20084;-69
2022/04/03 13:12:41;;;;;;;0.20;0.20;;;;;;;;;;5061651;28;20080;-69
2022/04/03 13:15:07;;;;;;;1.38;0.50;;;;;;;;;;5060713;28;20131;-68
2022/04/03 13:17:41;;;;;;;0.25;0.25;;;;;;;;;;5061533;28;20056;-68
2022/04/03 13:20:08;;;;;;;0.98;0.52;;;;;;;;;;5065817;28;20080;-69
2022/04/03 13:22:35;;;;;;;0.50;0.40;;;;;;;;;;5059765;28;20129;-68
2022/04/03 13:25:12;;;;;;;2.25;0.50;;;;;;;;;;5063597;28;20087;-69
2022/04/03 13:27:38;;;;;;;2.72;0.40;;;;;;;;;;5064035;28;20048;-69
2022/04/03 13:30:05;;;;;;;1.67;0.60;;;;;;;;;;5060692;28;20128;-68
2022/04/03 13:32:32;;;;;;;3.17;0.50;;;;;;;;;;5064979;28;20049;-68
2022/04/03 13:35:00;;;;;;;3.60;0.47;;;;;;;;;;5062988;28;20128;-68
2022/04/03 13:37:26;;;;;;;0.65;0.35;;;;;;;;;;5059895;28;20475;-68
2022/04/03 13:39:55;;;;;;;0.40;0.40;;;;;;;;;;5062617;28;20062;-68
2022/04/03 13:42:22;;;;;;;0.45;0.40;;;;;;;;;;5059607;28;20576;-68
2022/04/03 13:44:48;;;;;;;2.08;0.45;;;;;;;;;;5062113;28;20512;-68
2022/04/03 13:47:15;;;;;;;1.67;0.57;;;;;;;;;;5056917;28;20120;-68
2022/04/03 13:49:41;;;;;;;1.10;0.30;;;;;;;;;;5061716;28;20123;-68
2022/04/03 13:52:09;;;;;;;0.40;0.40;;;;;;;;;;5059659;28;20103;-68
2022/04/03 13:54:35;;;;;;;1.48;0.43;;;;;;;;;;5055497;28;20559;-66
2022/04/03 13:57:02;;;;;;;1.67;0.50;;;;;;;;;;5055589;28;20131;-66
2022/04/03 13:59:28;;;;;;;2.10;0.60;;;;;;;;;;5055466;28;20056;-67
2022/04/03 14:01:55;;;;;;;1.25;0.43;;;;;;;;;;5052448;28;20143;-66
2022/04/03 14:04:21;;;;;;;0.80;0.25;;;;;;;;;;5035933;28;20139;-66
2022/04/03 14:06:48;;;;;;;0.68;0.30;;;;;;;;;;5051816;28;20064;-67
2022/04/03 14:09:15;;;;;;;;;;;;;;;;;;5054833;28;20045;-66
2022/04/03 14:11:41;;;;;;;0.30;0.30;;;;;;;;;;5055526;28;20007;-66
2022/04/03 14:14:08;;;;;;;0.90;0.50;;;;;;;;;;5056124;28;20136;-66
2022/04/03 14:16:34;;;;;;;0.75;0.60;;;;;;;;;;5064445;28;20082;-68
2022/04/03 14:19:02;;;;;;;0.88;0.60;;;;;;;;;;5056315;28;20055;-68
2022/04/03 14:21:34;;;;;;;0.77;0.40;;;;;;;;;;5051407;28;20752;-68
2022/04/03 14:24:00;;;;;;;0.30;0.30;;;;;;;;;;5054494;28;20159;-67
2022/04/03 14:26:27;;;;;;;0.47;0.47;;;;;;;;;;5056354;28;20048;-67
2022/04/03 14:28:54;;;;;;;0.65;0.40;;;;;;;;;;5057742;28;20058;-68
2022/04/03 14:31:24;;;;;;;1.15;0.52;;;;;;;;;;5055593;28;20052;-67
2022/04/03 14:33:52;;;;;;;1.85;0.80;;;;;;;;;;5055716;28;20053;-67
2022/04/03 14:36:21;;;;;;;0.70;0.50;;;;;;;;;;5055513;28;20137;-67
2022/04/03 14:38:53;;;;;;;0.60;0.40;;;;;;;;;;5052051;28;20058;-67
2022/04/03 14:41:19;;;;;;;1.73;0.32;;;;;;;;;;5055793;28;20076;-67
2022/04/03 14:43:48;;;;;;;1.60;0.52;;;;;;;;;;5054416;28;20071;-67
2022/04/03 14:46:15;;;;;;;1.63;0.70;;;;;;;;;;5056036;28;20084;-67
2022/04/03 14:48:43;;;;;;;0.95;0.50;;;;;;;;;;5055301;28;20036;-67
2022/04/03 14:51:09;;;;;;;1.00;0.65;;;;;;;;;;5053650;28;20140;-67
2022/04/03 14:53:36;;;;;;;3.10;0.70;;;;;;;;;;5052757;28;20147;-67